createdAt,value
2022-08-26T00:00:20.243Z,19.91
2022-08-26T00:03:03.786Z,19.82
2022-08-26T00:05:32.414Z,19.73
2022-08-26T00:08:00.843Z,19.68
2022-08-26T00:10:29.778Z,19.69
2022-08-26T00:12:59.357Z,19.74
2022-08-26T00:15:56.880Z,19.77
2022-08-26T00:18:25.966Z,19.79
2022-08-26T00:20:55.141Z,19.80
2022-08-26T00:23:24.381Z,19.80
2022-08-26T00:25:54.976Z,19.78
2022-08-26T00:28:26.646Z,19.78
2022-08-26T00:30:57.691Z,19.78
2022-08-26T00:33:26.037Z,19.77
2022-08-26T00:35:54.465Z,19.74
2022-08-26T00:38:24.191Z,19.73
2022-08-26T00:40:55.828Z,19.73
2022-08-26T00:43:26.786Z,19.73
2022-08-26T00:46:06.602Z,19.72
2022-08-26T00:48:37.779Z,19.70
2022-08-26T00:51:17.153Z,19.68
2022-08-26T00:53:53.791Z,19.65
2022-08-26T00:56:30.133Z,19.59
2022-08-26T00:59:02.261Z,19.58
2022-08-26T01:01:33.276Z,19.58
2022-08-26T01:04:02.285Z,19.54
2022-08-26T01:06:31.628Z,19.45
2022-08-26T01:09:00.181Z,19.34
2022-08-26T01:11:28.629Z,19.16
2022-08-26T01:13:59.663Z,18.87
2022-08-26T01:16:30.828Z,18.68
2022-08-26T01:19:06.635Z,18.54
2022-08-26T01:21:44.193Z,18.32
2022-08-26T01:24:14.024Z,18.15
2022-08-26T01:26:44.896Z,18.11
2022-08-26T01:29:17.952Z,18.12
2022-08-26T01:31:52.465Z,18.15
2022-08-26T01:34:26.125Z,18.17
2022-08-26T01:37:15.497Z,18.21
2022-08-26T01:39:49.122Z,18.26
2022-08-26T01:42:20.369Z,18.29
2022-08-26T01:44:57.438Z,18.30
2022-08-26T01:47:46.936Z,18.24
2022-08-26T01:50:27.774Z,18.19
2022-08-26T01:53:00.399Z,18.21
2022-08-26T01:55:33.215Z,18.20
2022-08-26T01:58:08.308Z,18.15
2022-08-26T02:00:38.226Z,18.06
2022-08-26T02:03:17.445Z,17.92
2022-08-26T02:05:51.308Z,17.78
2022-08-26T02:08:37.769Z,17.70
2022-08-26T02:11:07.718Z,17.67
2022-08-26T02:13:46.613Z,17.68
2022-08-26T02:16:22.385Z,17.60
2022-08-26T02:18:55.824Z,17.47
2022-08-26T02:21:25.042Z,17.44
2022-08-26T02:23:55.998Z,17.40
2022-08-26T02:26:27.034Z,17.33
2022-08-26T02:29:31.812Z,17.24
2022-08-26T02:32:00.993Z,17.19
2022-08-26T02:34:32.169Z,17.19
2022-08-26T02:37:06.522Z,17.22
2022-08-26T02:39:37.111Z,17.20
2022-08-26T02:42:06.387Z,17.18
2022-08-26T02:44:35.315Z,17.17
2022-08-26T02:47:04.619Z,17.16
2022-08-26T02:49:33.749Z,17.16
2022-08-26T02:52:02.186Z,17.16
2022-08-26T02:54:31.724Z,17.16
2022-08-26T02:57:01.942Z,17.13
2022-08-26T02:59:32.123Z,17.10
2022-08-26T03:02:00.664Z,17.08
2022-08-26T03:04:30.686Z,17.06
2022-08-26T03:07:02.772Z,17.06
2022-08-26T03:09:32.189Z,17.06
2022-08-26T03:12:01.461Z,17.08
2022-08-26T03:14:30.565Z,16.99
2022-08-26T03:16:59.192Z,16.93
2022-08-26T03:19:27.690Z,16.89
2022-08-26T03:21:57.891Z,16.85
2022-08-26T03:24:27.012Z,16.81
2022-08-26T03:26:55.420Z,16.78
2022-08-26T03:29:43.335Z,16.77
2022-08-26T03:32:12.544Z,16.73
2022-08-26T03:34:40.970Z,16.72
2022-08-26T03:37:10.175Z,16.73
2022-08-26T03:39:38.594Z,16.74
2022-08-26T03:42:09.387Z,16.70
2022-08-26T03:44:42.230Z,16.76
2022-08-26T03:47:11.234Z,16.77
2022-08-26T03:49:39.813Z,16.79
2022-08-26T03:52:08.199Z,16.85
2022-08-26T03:54:36.879Z,16.92
2022-08-26T03:57:05.386Z,16.98
2022-08-26T03:59:34.234Z,16.97
2022-08-26T04:02:02.756Z,16.96
2022-08-26T04:04:31.400Z,17.02
2022-08-26T04:07:00.568Z,17.08
2022-08-26T04:09:29.153Z,17.13
2022-08-26T04:11:58.783Z,17.17
2022-08-26T04:14:28.382Z,17.15
2022-08-26T04:16:57.257Z,17.14
2022-08-26T04:19:27.155Z,17.13
2022-08-26T04:21:55.461Z,17.13
2022-08-26T04:24:26.178Z,17.17
2022-08-26T04:26:56.876Z,17.20
2022-08-26T04:29:26.992Z,17.21
2022-08-26T04:31:56.020Z,17.24
2022-08-26T04:34:28.342Z,17.19
2022-08-26T04:36:58.504Z,17.18
2022-08-26T04:39:27.689Z,17.17
2022-08-26T04:41:57.659Z,17.28
2022-08-26T04:44:29.219Z,17.37
2022-08-26T04:46:58.823Z,17.43
2022-08-26T04:49:27.790Z,17.51
2022-08-26T04:51:56.258Z,17.58
2022-08-26T04:54:26.295Z,17.62
2022-08-26T04:56:55.333Z,17.69
2022-08-26T04:59:25.339Z,17.77
2022-08-26T05:04:49.291Z,17.89
2022-08-26T05:07:20.353Z,17.98
2022-08-26T05:09:49.752Z,18.02
2022-08-26T05:12:18.648Z,18.05
2022-08-26T05:14:47.467Z,18.11
2022-08-26T05:17:15.966Z,18.15
2022-08-26T05:19:44.972Z,18.16
2022-08-26T05:22:14.082Z,18.22
2022-08-26T05:24:43.879Z,18.31
2022-08-26T05:27:13.625Z,18.35
2022-08-26T05:29:42.633Z,18.45
2022-08-26T05:32:12.750Z,18.56
2022-08-26T05:34:41.246Z,18.66
2022-08-26T05:37:11.506Z,18.76
2022-08-26T05:39:43.564Z,18.85
2022-08-26T05:42:20.186Z,18.96
2022-08-26T05:44:53.699Z,19.05
2022-08-26T05:47:26.425Z,19.16
2022-08-26T05:49:56.316Z,19.29
2022-08-26T05:52:26.092Z,19.41
2022-08-26T05:54:55.312Z,19.51
2022-08-26T05:57:23.910Z,19.67
2022-08-26T05:59:53.107Z,19.79
2022-08-26T06:02:22.127Z,19.97
2022-08-26T06:04:50.433Z,20.10
2022-08-26T06:07:40.618Z,20.24
2022-08-26T06:10:32.516Z,20.41
2022-08-26T06:13:09.294Z,20.57
2022-08-26T06:15:46.149Z,20.69
2022-08-26T06:18:17.501Z,20.81
2022-08-26T06:20:57.120Z,20.94
2022-08-26T06:23:48.005Z,21.07
2022-08-26T06:26:16.945Z,21.22
2022-08-26T06:28:45.851Z,21.36
2022-08-26T06:31:15.823Z,21.50
2022-08-26T06:33:45.559Z,21.61
2022-08-26T06:36:25.521Z,21.71
2022-08-26T06:38:56.089Z,21.82
2022-08-26T06:41:25.945Z,21.95
2022-08-26T06:43:54.374Z,22.08
2022-08-26T06:46:23.016Z,22.21
2022-08-26T06:48:55.708Z,22.33
2022-08-26T06:51:36.039Z,22.45
2022-08-26T06:54:06.218Z,22.58
2022-08-26T06:56:41.824Z,22.68
2022-08-26T06:59:12.112Z,22.85
2022-08-26T07:01:46.381Z,22.96
2022-08-26T07:04:22.163Z,23.10
2022-08-26T07:06:53.711Z,23.29
2022-08-26T07:09:25.545Z,23.45
2022-08-26T07:11:58.556Z,23.57
2022-08-26T07:14:27.062Z,23.69
2022-08-26T07:16:55.650Z,23.81
2022-08-26T07:19:30.464Z,23.92
2022-08-26T07:22:04.720Z,24.04
2022-08-26T07:24:36.829Z,24.16
2022-08-26T07:27:07.483Z,24.31
2022-08-26T07:29:39.517Z,24.43
2022-08-26T07:32:10.056Z,24.54
2022-08-26T07:34:39.164Z,24.63
2022-08-26T07:37:08.696Z,24.76
2022-08-26T07:39:37.880Z,24.87
2022-08-26T07:42:13.264Z,25.00
2022-08-26T07:44:43.581Z,25.10
2022-08-26T07:47:25.827Z,25.24
2022-08-26T07:49:58.078Z,25.39
2022-08-26T07:52:28.968Z,25.54
2022-08-26T07:54:59.402Z,25.69
2022-08-26T07:57:28.855Z,25.81
2022-08-26T07:59:57.569Z,25.94
2022-08-26T08:02:27.408Z,26.12
2022-08-26T08:04:57.908Z,26.30
2022-08-26T08:07:44.992Z,26.55
2022-08-26T08:10:18.708Z,26.81
2022-08-26T08:12:50.489Z,27.06
2022-08-26T08:15:21.927Z,27.38
2022-08-26T08:17:51.622Z,27.67
2022-08-26T08:20:22.252Z,27.87
2022-08-26T08:22:52.919Z,28.13
2022-08-26T08:25:23.500Z,28.37
2022-08-26T08:27:51.856Z,28.67
2022-08-26T08:30:23.024Z,29.00
2022-08-26T08:32:52.587Z,29.35
2022-08-26T08:35:22.895Z,29.64
2022-08-26T08:37:54.527Z,29.89
2022-08-26T08:40:26.458Z,30.20
2022-08-26T08:43:11.784Z,30.52
2022-08-26T08:45:49.746Z,30.74
2022-08-26T08:48:35.080Z,30.88
2022-08-26T08:51:30.140Z,31.01
2022-08-26T08:54:00.360Z,31.39
2022-08-26T08:56:45.021Z,31.73
2022-08-26T08:59:18.177Z,31.75
2022-08-26T09:01:55.752Z,31.88
2022-08-26T09:05:05.718Z,32.08
2022-08-26T09:07:49.021Z,32.41
2022-08-26T09:10:37.532Z,32.86
2022-08-26T09:13:13.720Z,33.02
2022-08-26T09:16:14.158Z,33.16
2022-08-26T09:19:11.318Z,33.28
2022-08-26T09:21:39.736Z,33.24
2022-08-26T09:24:08.413Z,33.52
2022-08-26T09:26:39.718Z,33.55
2022-08-26T09:29:14.654Z,33.47
2022-08-26T09:31:43.043Z,33.52
2022-08-26T09:34:19.591Z,33.76
2022-08-26T09:36:51.564Z,34.12
2022-08-26T09:39:31.256Z,34.20
2022-08-26T09:42:07.677Z,34.11
2022-08-26T09:44:52.922Z,34.22
2022-08-26T09:47:52.836Z,34.43
2022-08-26T09:50:55.644Z,34.68
2022-08-26T09:53:30.508Z,34.94
2022-08-26T09:56:27.581Z,35.26
2022-08-26T09:58:57.776Z,35.47
2022-08-26T10:01:38.442Z,35.56
2022-08-26T10:04:15.041Z,35.75
2022-08-26T10:07:05.287Z,35.85
2022-08-26T10:09:39.133Z,35.97
2022-08-26T10:12:13.472Z,36.20
2022-08-26T10:15:12.080Z,36.20
2022-08-26T10:17:53.573Z,36.37
2022-08-26T10:20:28.929Z,36.40
2022-08-26T10:23:03.400Z,36.47
2022-08-26T10:25:47.396Z,36.49
2022-08-26T10:28:35.581Z,36.65
2022-08-26T10:31:29.660Z,36.90
2022-08-26T10:34:07.296Z,36.98
2022-08-26T10:39:43.001Z,37.38
2022-08-26T10:42:35.558Z,37.57
2022-08-26T10:45:08.037Z,37.46
2022-08-26T10:47:52.364Z,37.48
2022-08-26T10:50:25.147Z,37.55
2022-08-26T10:53:04.084Z,37.27
2022-08-26T10:55:57.413Z,37.17
2022-08-26T10:58:28.580Z,36.89
2022-08-26T11:01:40.752Z,36.91
2022-08-26T11:04:16.782Z,36.48
2022-08-26T11:06:46.258Z,36.64
2022-08-26T11:09:45.997Z,36.80
2022-08-26T11:12:36.342Z,36.91
2022-08-26T11:15:09.066Z,36.94
2022-08-26T11:17:47.039Z,37.29
2022-08-26T11:20:33.481Z,37.48
2022-08-26T11:23:14.570Z,37.55
2022-08-26T11:26:01.100Z,37.79
2022-08-26T11:28:45.651Z,37.80
2022-08-26T11:31:25.438Z,37.59
2022-08-26T11:34:07.261Z,37.13
2022-08-26T11:36:47.951Z,36.97
2022-08-26T11:39:28.991Z,36.44
2022-08-26T11:42:05.395Z,36.33
2022-08-26T11:44:49.580Z,36.26
2022-08-26T11:47:29.456Z,36.46
2022-08-26T11:50:17.643Z,36.71
2022-08-26T11:53:07.658Z,37.18
2022-08-26T11:55:42.873Z,37.48
2022-08-26T11:58:15.048Z,37.50
2022-08-26T12:00:46.315Z,37.54
2022-08-26T12:03:43.988Z,37.63
2022-08-26T12:06:16.864Z,37.30
2022-08-26T12:08:47.656Z,37.22
2022-08-26T12:11:32.032Z,37.51
2022-08-26T12:14:07.255Z,37.59
2022-08-26T12:16:39.669Z,37.59
2022-08-26T12:19:32.911Z,37.62
2022-08-26T12:22:27.805Z,37.55
2022-08-26T12:24:59.539Z,37.38
2022-08-26T12:27:42.863Z,37.43
2022-08-26T12:30:18.025Z,37.58
2022-08-26T12:33:03.374Z,37.72
2022-08-26T12:35:56.561Z,37.79
2022-08-26T12:38:27.614Z,38.08
2022-08-26T12:40:57.179Z,38.29
2022-08-26T12:43:38.572Z,38.36
2022-08-26T12:46:10.568Z,38.56
2022-08-26T12:48:42.905Z,38.37
2022-08-26T12:51:24.939Z,38.29
2022-08-26T12:53:54.382Z,38.27
2022-08-26T12:56:40.732Z,38.25
2022-08-26T12:59:29.264Z,38.16
2022-08-26T13:01:57.697Z,38.27
2022-08-26T13:04:40.485Z,38.23
2022-08-26T13:07:18.289Z,38.06
2022-08-26T13:09:47.326Z,37.88
2022-08-26T13:12:37.469Z,37.66
2022-08-26T13:15:07.203Z,37.06
2022-08-26T13:17:36.150Z,36.04
2022-08-26T13:20:05.040Z,35.24
2022-08-26T13:22:34.456Z,34.78
2022-08-26T13:25:03.047Z,34.41
2022-08-26T13:27:31.434Z,34.07
2022-08-26T13:30:00.417Z,33.70
2022-08-26T13:32:29.297Z,33.43
2022-08-26T13:34:57.985Z,33.37
2022-08-26T13:37:35.043Z,33.62
2022-08-26T13:40:07.052Z,33.80
2022-08-26T13:42:35.744Z,33.63
2022-08-26T13:45:06.355Z,33.43
2022-08-26T13:47:35.099Z,33.20
2022-08-26T13:50:04.706Z,33.49
2022-08-26T13:52:33.048Z,33.80
2022-08-26T13:55:01.681Z,34.02
2022-08-26T13:57:30.629Z,34.04
2022-08-26T14:00:01.787Z,34.03
2022-08-26T14:02:37.983Z,34.00
2022-08-26T14:05:07.175Z,33.90
2022-08-26T14:07:35.509Z,33.79
2022-08-26T14:10:04.116Z,33.65
2022-08-26T14:12:32.473Z,33.66
2022-08-26T14:15:00.780Z,33.75
2022-08-26T14:17:30.765Z,33.65
2022-08-26T14:19:59.314Z,33.69
2022-08-26T14:22:28.084Z,33.71
2022-08-26T14:24:56.780Z,33.76
2022-08-26T14:27:25.579Z,33.77
2022-08-26T14:29:54.468Z,33.62
2022-08-26T14:32:27.313Z,33.52
2022-08-26T14:34:56.220Z,33.58
2022-08-26T14:37:24.848Z,33.65
2022-08-26T14:40:31.360Z,33.79
2022-08-26T14:43:02.639Z,33.70
2022-08-26T14:45:34.769Z,33.38
2022-08-26T14:48:05.688Z,33.35
2022-08-26T14:50:33.887Z,33.21
2022-08-26T14:53:20.408Z,33.18
2022-08-26T14:55:48.865Z,33.09
2022-08-26T14:58:17.065Z,33.00
2022-08-26T15:00:45.222Z,32.87
2022-08-26T15:05:48.448Z,32.69
2022-08-26T15:08:16.926Z,32.50
2022-08-26T15:10:45.000Z,32.43
2022-08-26T15:13:13.107Z,32.32
2022-08-26T15:15:41.263Z,32.11
2022-08-26T15:18:10.106Z,31.93
2022-08-26T15:20:38.703Z,31.81
2022-08-26T15:23:07.469Z,31.72
2022-08-26T15:25:35.767Z,31.62
2022-08-26T15:28:04.175Z,31.51
2022-08-26T15:30:33.648Z,31.40
2022-08-26T15:33:01.950Z,31.29
2022-08-26T15:35:30.111Z,31.16
2022-08-26T15:38:04.216Z,30.98
2022-08-26T15:40:32.353Z,30.88
2022-08-26T15:43:17.709Z,30.76
2022-08-26T15:45:46.885Z,30.62
2022-08-26T15:48:16.196Z,30.51
2022-08-26T15:50:56.518Z,30.44
2022-08-26T15:53:24.923Z,30.33
2022-08-26T15:55:58.980Z,30.24
2022-08-26T15:58:28.586Z,30.18
2022-08-26T16:00:56.974Z,30.12
2022-08-26T16:03:25.143Z,30.01
2022-08-26T16:05:53.543Z,29.93
2022-08-26T16:08:22.534Z,29.87
2022-08-26T16:10:51.497Z,29.80
2022-08-26T16:13:20.826Z,29.71
2022-08-26T16:15:52.689Z,29.63
2022-08-26T16:18:20.877Z,29.55
2022-08-26T16:21:12.391Z,29.45
2022-08-26T16:23:45.179Z,29.33
2022-08-26T16:26:20.773Z,29.23
2022-08-26T16:28:49.239Z,29.15
2022-08-26T16:31:18.116Z,29.04
2022-08-26T16:33:46.398Z,28.94
2022-08-26T16:36:14.963Z,28.84
2022-08-26T16:38:50.247Z,28.75
2022-08-26T16:41:19.365Z,28.63
2022-08-26T16:43:47.863Z,28.55
2022-08-26T16:46:16.360Z,28.45
2022-08-26T16:48:45.709Z,28.35
2022-08-26T16:51:17.021Z,28.26
2022-08-26T16:53:45.964Z,28.16
2022-08-26T16:56:16.521Z,28.07
2022-08-26T16:58:44.858Z,27.96
2022-08-26T17:01:13.092Z,27.86
2022-08-26T17:03:41.743Z,27.77
2022-08-26T17:06:10.358Z,27.70
2022-08-26T17:08:40.137Z,27.64
2022-08-26T17:11:09.114Z,27.53
2022-08-26T17:13:39.333Z,27.40
2022-08-26T17:16:10.235Z,27.26
2022-08-26T17:18:39.025Z,27.15
2022-08-26T17:21:10.485Z,27.04
2022-08-26T17:23:41.092Z,26.95
2022-08-26T17:26:10.889Z,26.86
2022-08-26T17:28:39.736Z,26.76
2022-08-26T17:31:09.555Z,26.66
2022-08-26T17:33:38.210Z,26.56
2022-08-26T17:36:08.077Z,26.45
2022-08-26T17:38:37.853Z,26.36
2022-08-26T17:41:14.934Z,26.26
2022-08-26T17:43:43.929Z,26.16
2022-08-26T17:46:12.920Z,26.06
2022-08-26T17:48:41.426Z,25.97
2022-08-26T17:51:15.520Z,25.90
2022-08-26T17:53:43.948Z,25.81
2022-08-26T17:56:14.846Z,25.74
2022-08-26T17:58:50.940Z,25.67
2022-08-26T18:01:21.793Z,25.54
2022-08-26T18:03:50.379Z,25.51
2022-08-26T18:06:20.842Z,25.46
2022-08-26T18:08:49.054Z,25.42
2022-08-26T18:11:20.511Z,25.37
2022-08-26T18:13:55.609Z,25.34
2022-08-26T18:16:42.994Z,25.29
2022-08-26T18:19:11.422Z,25.25
2022-08-26T18:21:39.570Z,25.24
2022-08-26T18:24:12.153Z,25.25
2022-08-26T18:26:48.374Z,25.25
2022-08-26T18:29:18.592Z,25.24
2022-08-26T18:31:48.658Z,25.23
2022-08-26T18:34:17.226Z,25.18
2022-08-26T18:36:46.162Z,25.20
2022-08-26T18:39:15.730Z,25.18
2022-08-26T18:41:47.608Z,25.10
2022-08-26T18:44:18.883Z,25.11
2022-08-26T18:46:47.779Z,25.08
2022-08-26T18:49:18.124Z,25.06
2022-08-26T18:51:47.940Z,25.03
2022-08-26T18:54:16.362Z,25.02
2022-08-26T18:56:45.342Z,25.01
2022-08-26T18:59:14.133Z,24.98
2022-08-26T19:01:43.414Z,24.95
2022-08-26T19:04:15.292Z,24.95
2022-08-26T19:06:47.801Z,24.95
2022-08-26T19:09:17.862Z,24.96
2022-08-26T19:11:47.013Z,24.97
2022-08-26T19:14:18.673Z,24.97
2022-08-26T19:16:48.764Z,24.97
2022-08-26T19:19:17.438Z,24.97
2022-08-26T19:21:47.104Z,24.97
2022-08-26T19:24:17.696Z,24.97
2022-08-26T19:26:57.702Z,24.95
2022-08-26T19:29:29.708Z,24.95
2022-08-26T19:31:58.148Z,24.93
2022-08-26T19:34:26.730Z,24.95
2022-08-26T19:36:57.009Z,24.95
2022-08-26T19:39:26.535Z,24.95
2022-08-26T19:41:56.112Z,24.95
2022-08-26T19:44:42.795Z,24.94
2022-08-26T19:47:12.004Z,24.90
2022-08-26T19:49:40.293Z,24.86
2022-08-26T19:52:09.051Z,24.83
2022-08-26T19:54:38.446Z,24.79
2022-08-26T19:57:06.782Z,24.78
2022-08-26T19:59:36.852Z,24.77
2022-08-26T20:02:10.048Z,24.80
2022-08-26T20:04:40.075Z,24.82
2022-08-26T20:07:09.325Z,24.84
2022-08-26T20:09:37.870Z,24.84
2022-08-26T20:12:07.089Z,24.83
2022-08-26T20:14:36.422Z,24.79
2022-08-26T20:17:05.866Z,24.77
2022-08-26T20:19:53.086Z,24.72
2022-08-26T20:22:21.862Z,24.67
2022-08-26T20:24:50.042Z,24.62
2022-08-26T20:27:18.232Z,24.53
2022-08-26T20:29:46.376Z,24.50
2022-08-26T20:32:14.845Z,24.45
2022-08-26T20:34:43.073Z,24.37
2022-08-26T20:37:12.395Z,24.31
2022-08-26T20:39:41.488Z,24.27
2022-08-26T20:42:20.291Z,24.25
2022-08-26T20:44:54.430Z,24.22
2022-08-26T20:47:23.432Z,24.17
2022-08-26T20:49:52.578Z,24.13
2022-08-26T20:52:20.822Z,24.07
2022-08-26T20:54:49.052Z,24.02
2022-08-26T20:57:17.247Z,23.96
2022-08-26T20:59:45.395Z,23.92
2022-08-26T21:02:13.651Z,23.87
2022-08-26T21:04:41.815Z,23.83
2022-08-26T21:07:09.956Z,23.78
2022-08-26T21:09:38.268Z,23.73
2022-08-26T21:12:06.644Z,23.70
2022-08-26T21:14:34.771Z,23.67
2022-08-26T21:17:03.238Z,23.66
2022-08-26T21:19:31.445Z,23.65
2022-08-26T21:21:59.700Z,23.66
2022-08-26T21:24:27.901Z,23.65
2022-08-26T21:26:56.058Z,23.63
2022-08-26T21:29:24.166Z,23.61
2022-08-26T21:31:52.433Z,23.59
2022-08-26T21:34:20.873Z,23.55
2022-08-26T21:36:49.250Z,23.51
2022-08-26T21:39:18.081Z,23.46
2022-08-26T21:41:47.359Z,23.39
2022-08-26T21:44:18.205Z,23.34
2022-08-26T21:46:47.183Z,23.28
2022-08-26T21:49:16.479Z,23.23
2022-08-26T21:51:48.064Z,23.18
2022-08-26T21:54:18.199Z,23.12
2022-08-26T21:56:47.376Z,23.06
2022-08-26T21:59:18.029Z,23.01
2022-08-26T22:01:46.910Z,22.96
2022-08-26T22:04:16.722Z,22.89
2022-08-26T22:06:48.858Z,22.82
2022-08-26T22:09:20.734Z,22.71
2022-08-26T22:11:49.992Z,22.53
2022-08-26T22:14:22.262Z,22.41
2022-08-26T22:16:51.067Z,22.31
2022-08-26T22:19:21.748Z,22.25
2022-08-26T22:21:54.031Z,22.16
2022-08-26T22:24:24.838Z,22.04
2022-08-26T22:26:54.375Z,21.98
2022-08-26T22:29:22.705Z,21.94
2022-08-26T22:31:51.025Z,21.92
2022-08-26T22:34:21.218Z,21.88
2022-08-26T22:36:50.064Z,21.85
2022-08-26T22:39:22.084Z,21.80
2022-08-26T22:41:51.375Z,21.77
2022-08-26T22:44:21.627Z,21.82
2022-08-26T22:46:54.181Z,21.92
2022-08-26T22:49:23.230Z,21.88
2022-08-26T22:51:51.419Z,21.80
2022-08-26T22:54:19.575Z,21.71
2022-08-26T22:56:47.893Z,21.65
2022-08-26T22:59:17.006Z,21.58
2022-08-26T23:01:47.007Z,21.55
2022-08-26T23:04:15.289Z,21.51
2022-08-26T23:06:47.344Z,21.47
2022-08-26T23:09:18.707Z,21.43
2022-08-26T23:11:48.643Z,21.40
2022-08-26T23:14:19.165Z,21.41
2022-08-26T23:16:48.098Z,21.40
2022-08-26T23:19:19.509Z,21.41
2022-08-26T23:21:49.685Z,21.42
2022-08-26T23:24:18.462Z,21.43
2022-08-26T23:26:47.163Z,21.44
2022-08-26T23:29:16.112Z,21.45
2022-08-26T23:31:44.976Z,21.41
2022-08-26T23:34:33.449Z,21.36
2022-08-26T23:37:02.347Z,21.30
2022-08-26T23:39:33.373Z,21.26
2022-08-26T23:42:01.836Z,21.20
2022-08-26T23:44:30.878Z,21.15
2022-08-26T23:46:59.756Z,21.12
2022-08-26T23:49:29.074Z,21.08
2022-08-26T23:52:16.366Z,21.05
2022-08-26T23:54:44.737Z,20.97
2022-08-26T23:57:12.841Z,20.93
2022-08-26T23:59:41.359Z,21.01
